Kanaloa — ZCCN — position and weather

sailwx.info

Track history (hours):
 
Tides and Currents Weather Stations Pressure Air Temp Water Temp Dewpoint Dewpoint Depression Visibility Wind Speed Wind Dir Waves Ship Positions

Kanaloa

Last reported at 2017-Sep-19 23:01 UTC. Time now 2017-Sep-24 06:57 UTC.
Position N 43°53' E 008°01'.

Length 48 m; draft 3.5 m.

Type: Pleasure craft. MMSI: 319093000.

Date/timePositionNaut miles runAvg speedWind from/ knotsBaromVisibWave heightAir tempDewpointWater temp
2017-Sep-19 23:01N 43°53' E 008°01'0 0.0
2017-Sep-19 22:37N 43°53' E 008°01'0 0.0
2017-Sep-19 22:07N 43°53' E 008°01'0 0.0
2017-Sep-19 21:49N 43°53' E 008°01'0 0.0
2017-Sep-19 21:07N 43°53' E 008°01'0 0.0
2017-Sep-19 20:55N 43°53' E 008°01'  
2017-Sep-15 22:44N 43°42' E 008°27'413.8
2017-Sep-15 22:27N 43°40' E 008°32'614.0
2017-Sep-15 22:00N 43°37' E 008°39'713.6
2017-Sep-15 21:30N 43°33' E 008°47'612.9
2017-Sep-15 21:01N 43°28' E 008°53'713.6
2017-Sep-15 20:31N 43°24' E 009°00'813.8
2017-Sep-15 19:54N 43°20' E 009°10'613.7
2017-Sep-15 19:28N 43°17' E 009°18'613.9
2017-Sep-15 19:00N 43°14' E 009°25'713.8
2017-Sep-15 18:30N 43°10' E 009°32'38210.5
2017-Sep-14 06:16N 38°30' E 015°15'413.3
2017-Sep-14 05:59N 38°28' E 015°19'713.0
2017-Sep-14 05:29N 38°24' E 015°26'612.9
2017-Sep-14 04:59N 38°21' E 015°34'612.8
2017-Sep-14 04:30N 38°19' E 015°40'4 8.6
2017-Sep-14 04:00N 38°15' E 015°38'510.6
2017-Sep-14 03:30N 38°09' E 015°37'5 9.8
2017-Sep-14 03:00N 38°04' E 015°36'713.1
2017-Sep-14 02:30N 37°58' E 015°37'712.8
2017-Sep-14 01:59N 37°53' E 015°43'  
Track history (hours):
 
Tides and Currents Weather Stations Pressure Air Temp Water Temp Dewpoint Dewpoint Depression Visibility Wind Speed Wind Dir Waves Ship Positions

Kanaloa

Last reported at 2017-Sep-19 23:01 UTC. Time now 2017-Sep-24 06:57 UTC.
Position N 43°53' E 008°01'.

Length 48 m; draft 3.5 m.

Type: Pleasure craft. MMSI: 319093000.

Date/timePositionNaut miles runAvg speedWind from/ knotsBaromVisibWave heightAir tempDewpointWater temp
2017-Sep-19 23:01N 43°53' E 008°01'0 0.0
2017-Sep-19 22:37N 43°53' E 008°01'0 0.0
2017-Sep-19 22:07N 43°53' E 008°01'0 0.0
2017-Sep-19 21:49N 43°53' E 008°01'0 0.0
2017-Sep-19 21:07N 43°53' E 008°01'0 0.0
2017-Sep-19 20:55N 43°53' E 008°01'  
2017-Sep-15 22:44N 43°42' E 008°27'413.8
2017-Sep-15 22:27N 43°40' E 008°32'614.0
2017-Sep-15 22:00N 43°37' E 008°39'713.6
2017-Sep-15 21:30N 43°33' E 008°47'612.9
2017-Sep-15 21:01N 43°28' E 008°53'713.6
2017-Sep-15 20:31N 43°24' E 009°00'813.8
2017-Sep-15 19:54N 43°20' E 009°10'613.7
2017-Sep-15 19:28N 43°17' E 009°18'613.9
2017-Sep-15 19:00N 43°14' E 009°25'713.8
2017-Sep-15 18:30N 43°10' E 009°32'38210.5
2017-Sep-14 06:16N 38°30' E 015°15'413.3
2017-Sep-14 05:59N 38°28' E 015°19'713.0
2017-Sep-14 05:29N 38°24' E 015°26'612.9
2017-Sep-14 04:59N 38°21' E 015°34'612.8
2017-Sep-14 04:30N 38°19' E 015°40'4 8.6
2017-Sep-14 04:00N 38°15' E 015°38'510.6
2017-Sep-14 03:30N 38°09' E 015°37'5 9.8
2017-Sep-14 03:00N 38°04' E 015°36'713.1
2017-Sep-14 02:30N 37°58' E 015°37'712.8
2017-Sep-14 01:59N 37°53' E 015°43'  

Dump ship's entire track history